Johnson County (6A4)
Johnson County, TN
Field Elevation: 2240
Lat: 36°25.07N  Long: 81°49.51W
CTAF/Unicom Freq: 122.7000
   
    
Weather Advisories
9/2/2014 18:47 Z
Altimeter 30.12" Hg
Wind 250° @ 5 KT
Gusts --
Visibility 10 SM
Ceiling SCT038
Temperature 28° C (82° F)
Dewpoint 19° C (66° F)
Relative Humidity 59%
Density Altitude 4,000 feet
Condensation Altitude 6,700 feet
Heat Index 29° C (84° F)
  Wind and Runways
Indicated Runway = 24
History
 
 
More Info
All DigiWx sites map
 
Johnson County Airport FBO
 
Airport IQ 5010
(M01) General Dewitt Spain Airport
(3M3) Collegedale Muni
 
about DigiWx
 
FAA Disclaimer: The data displayed is for advisory purposes only and is not to be used for flight planning or operations. For official data, please call (not available) to hear the current automated AWOS voice message.
  METAR 6A4 021847Z AUTO 25005KT 10SM SCT038 28/19 A3012